Time;durP1;ratioP1;P1;durP2;ratioP2;P2;SDS_P1;SDS_P2;PMS_P1;PMS_P2;Temp;Humidity;BMP_temperature;BMP_pressure;BME280_temperature;BME280_humidity;BME280_pressure;Samples;Min_cycle;Max_cycle;Signal;HPM_P1;HPM_P2
2021/10/10 00:00:51;;;;;;;37.08;23.90;;;5.60;99.90;;;;;;4914852;29;20036;-74
2021/10/10 00:03:17;;;;;;;34.42;21.63;;;5.60;99.90;;;;;;4915279;29;20024;-74
2021/10/10 00:05:43;;;;;;;35.65;22.80;;;5.50;99.90;;;;;;4913235;29;20028;-73
2021/10/10 00:08:08;;;;;;;39.70;23.05;;;5.50;99.90;;;;;;4915256;29;20060;-74
2021/10/10 00:10:34;;;;;;;39.13;23.77;;;5.50;99.90;;;;;;4914050;29;20035;-75
2021/10/10 00:13:00;;;;;;;45.40;26.13;;;5.40;99.90;;;;;;4915511;29;20178;-74
2021/10/10 00:15:26;;;;;;;40.63;25.02;;;5.40;99.90;;;;;;4913598;29;20055;-75
2021/10/10 00:17:52;;;;;;;37.60;24.23;;;5.30;99.90;;;;;;4915570;29;20043;-75
2021/10/10 00:20:18;;;;;;;40.47;25.88;;;5.30;99.90;;;;;;4915554;29;20036;-74
2021/10/10 00:22:44;;;;;;;41.47;25.33;;;5.30;99.90;;;;;;4929956;29;20048;-75
2021/10/10 00:25:10;;;;;;;39.88;24.67;;;5.30;99.90;;;;;;4928853;29;20087;-75
2021/10/10 00:27:36;;;;;;;39.70;24.40;;;5.30;99.90;;;;;;4913984;29;20036;-74
2021/10/10 00:30:04;;;;;;;39.20;23.77;;;5.30;99.90;;;;;;4914962;29;20042;-74
2021/10/10 00:32:30;;;;;;;38.33;24.42;;;5.20;99.90;;;;;;4915144;29;20033;-75
2021/10/10 00:34:56;;;;;;;38.40;21.83;;;5.20;99.90;;;;;;4914100;29;20056;-73
2021/10/10 00:37:21;;;;;;;40.38;24.08;;;5.10;99.90;;;;;;4918278;29;20083;-73
2021/10/10 00:39:47;;;;;;;36.50;23.63;;;5.10;99.90;;;;;;4918257;29;20032;-74
2021/10/10 00:42:13;;;;;;;41.72;24.80;;;5.10;99.90;;;;;;4918434;29;20443;-75
2021/10/10 00:44:38;;;;;;;36.67;22.77;;;5.10;99.90;;;;;;4916362;29;20031;-72
2021/10/10 00:47:04;;;;;;;36.00;22.65;;;5.10;99.90;;;;;;4918490;29;20378;-72
2021/10/10 00:49:30;;;;;;;38.78;24.65;;;5.10;99.90;;;;;;4918277;29;20020;-75
2021/10/10 00:51:58;;;;;;;38.72;23.38;;;5.10;99.90;;;;;;4918275;29;20383;-74
2021/10/10 00:54:27;;;;;;;40.03;25.55;;;5.00;99.90;;;;;;4917607;29;20455;-72
2021/10/10 00:56:54;;;;;;;44.38;26.02;;;5.10;99.90;;;;;;4918326;29;20360;-75
2021/10/10 00:59:22;;;;;;;40.10;24.63;;;5.00;99.90;;;;;;4918061;29;20035;-75
2021/10/10 01:01:49;;;;;;;40.00;25.83;;;5.00;99.90;;;;;;4916896;29;20036;-75
2021/10/10 01:04:15;;;;;;;42.65;25.02;;;4.90;99.90;;;;;;4917664;29;20036;-74
2021/10/10 01:06:40;;;;;;;39.08;25.17;;;5.00;99.90;;;;;;4917892;29;20464;-74
2021/10/10 01:09:06;;;;;;;41.25;25.38;;;5.00;99.90;;;;;;4917935;29;20028;-74
2021/10/10 01:11:32;;;;;;;37.60;22.33;;;4.90;99.90;;;;;;4917581;29;20024;-75
2021/10/10 01:13:58;;;;;;;40.60;26.45;;;4.90;99.90;;;;;;4916449;29;20028;-74
2021/10/10 01:16:24;;;;;;;40.40;24.52;;;4.90;99.90;;;;;;4917234;29;20541;-74
2021/10/10 01:18:49;;;;;;;40.53;24.45;;;4.90;99.90;;;;;;4917940;29;20115;-75
2021/10/10 01:21:17;;;;;;;43.80;26.40;;;4.80;99.90;;;;;;4916502;29;20064;-74
2021/10/10 01:23:43;;;;;;;42.50;26.60;;;4.90;99.90;;;;;;4917815;29;20071;-74
2021/10/10 01:26:08;;;;;;;39.58;25.27;;;4.90;99.90;;;;;;4916608;29;20579;-74
2021/10/10 01:28:34;;;;;;;39.35;25.33;;;4.80;99.90;;;;;;4917571;29;20068;-74
2021/10/10 01:31:00;;;;;;;42.83;24.75;;;4.70;99.90;;;;;;4917501;29;20059;-75
2021/10/10 01:33:26;;;;;;;40.30;25.42;;;4.70;99.90;;;;;;4917595;29;20071;-74
2021/10/10 01:35:51;;;;;;;39.13;26.25;;;4.70;99.90;;;;;;4917551;29;20028;-74
2021/10/10 01:38:18;;;;;;;42.80;26.95;;;4.60;99.90;;;;;;4919791;29;20032;-74
2021/10/10 01:40:46;;;;;;;39.33;25.05;;;4.50;99.90;;;;;;4919787;29;20039;-76
2021/10/10 01:43:12;;;;;;;39.17;25.40;;;4.60;99.90;;;;;;4918403;29;20051;-74
2021/10/10 01:45:38;;;;;;;42.50;25.60;;;4.60;99.90;;;;;;4916925;29;20020;-74
2021/10/10 01:48:04;;;;;;;38.97;24.48;;;4.50;99.90;;;;;;4916725;29;20372;-75
2021/10/10 01:50:35;;;;;;;41.50;24.83;;;4.50;99.90;;;;;;4917688;29;20020;-74
2021/10/10 01:53:01;;;;;;;43.50;24.98;;;4.50;99.90;;;;;;4917494;29;20542;-74
2021/10/10 01:55:27;;;;;;;37.88;24.27;;;4.50;99.90;;;;;;4916184;29;20024;-74
2021/10/10 01:57:52;;;;;;;36.08;23.45;;;4.50;99.90;;;;;;4917184;29;20036;-74
2021/10/10 02:00:18;;;;;;;36.42;21.83;;;4.50;99.90;;;;;;4917081;29;20072;-73
2021/10/10 02:02:44;;;;;;;41.97;23.30;;;4.50;99.90;;;;;;4920127;23;20455;-75
2021/10/10 02:05:10;;;;;;;38.28;23.77;;;4.40;99.90;;;;;;4897362;29;20025;-75
2021/10/10 02:07:36;;;;;;;43.67;24.35;;;4.40;99.90;;;;;;4897916;29;20059;-74
2021/10/10 02:10:06;;;;;;;41.60;24.20;;;4.40;99.90;;;;;;4897874;29;20020;-75
2021/10/10 02:12:31;;;;;;;39.10;23.67;;;4.30;99.90;;;;;;4897989;29;20032;-76
2021/10/10 02:14:57;;;;;;;42.10;24.15;;;4.30;99.90;;;;;;4897381;29;20040;-74
2021/10/10 02:17:22;;;;;;;40.53;24.88;;;4.30;99.90;;;;;;4897707;29;20036;-75
2021/10/10 02:19:48;;;;;;;39.00;24.75;;;4.20;99.90;;;;;;4897645;29;20025;-74
2021/10/10 02:22:14;;;;;;;40.20;23.77;;;4.10;99.90;;;;;;4897682;29;20031;-74
2021/10/10 02:24:39;;;;;;;39.95;23.63;;;4.20;99.90;;;;;;4897026;29;20029;-76
2021/10/10 02:27:05;;;;;;;49.60;26.10;;;4.20;99.90;;;;;;4897546;29;20083;-75
2021/10/10 02:29:31;;;;;;;39.13;24.65;;;4.10;99.90;;;;;;4897676;29;20088;-74
2021/10/10 02:31:57;;;;;;;37.20;24.38;;;4.00;99.90;;;;;;4902859;29;20435;-75
2021/10/10 02:34:23;;;;;;;36.88;23.60;;;3.90;99.90;;;;;;4915926;29;20031;-74
2021/10/10 02:36:49;;;;;;;41.08;23.70;;;4.00;99.90;;;;;;4916415;29;20028;-74
2021/10/10 02:39:14;;;;;;;40.28;25.38;;;4.00;99.90;;;;;;4916153;29;20039;-74
2021/10/10 02:41:40;;;;;;;39.03;24.58;;;4.00;99.90;;;;;;4914900;29;20398;-74
2021/10/10 02:44:06;;;;;;;41.78;25.17;;;4.00;99.90;;;;;;4916317;29;20028;-76
2021/10/10 02:46:32;;;;;;;48.28;26.20;;;3.90;99.90;;;;;;4915491;29;20451;-75
2021/10/10 02:48:59;;;;;;;45.15;27.10;;;3.90;99.90;;;;;;4916218;29;20032;-75
2021/10/10 02:51:24;;;;;;;39.70;25.35;;;3.80;99.90;;;;;;4916131;29;20178;-76
2021/10/10 02:53:50;;;;;;;40.88;24.88;;;3.80;99.90;;;;;;4915938;29;20416;-76
2021/10/10 02:56:16;;;;;;;51.22;25.45;;;3.80;99.90;;;;;;4915175;29;20115;-74
2021/10/10 02:58:43;;;;;;;39.50;25.02;;;3.80;99.90;;;;;;4930623;29;20028;-76
2021/10/10 03:01:09;;;;;;;41.58;25.30;;;3.80;99.90;;;;;;4915989;29;20032;-74
2021/10/10 03:03:35;;;;;;;39.50;23.92;;;3.70;99.90;;;;;;4916076;29;20039;-76
2021/10/10 03:06:00;;;;;;;43.80;24.75;;;3.70;99.90;;;;;;4915425;29;20042;-74
2021/10/10 03:08:26;;;;;;;38.83;24.48;;;3.70;99.90;;;;;;4915767;29;20387;-76
2021/10/10 03:10:51;;;;;;;43.35;24.25;;;3.70;99.90;;;;;;4914894;29;20032;-75
2021/10/10 03:13:17;;;;;;;41.65;23.50;;;3.70;99.90;;;;;;4915784;29;20038;-75
2021/10/10 03:15:43;;;;;;;36.20;21.90;;;3.70;99.90;;;;;;4915613;29;20032;-75
2021/10/10 03:18:08;;;;;;;35.78;21.40;;;3.60;99.90;;;;;;4915988;29;20083;-76
2021/10/10 03:20:34;;;;;;;38.00;23.23;;;3.70;99.90;;;;;;4916136;29;20036;-76
2021/10/10 03:23:00;;;;;;;38.20;23.15;;;3.60;99.90;;;;;;4915890;29;20032;-77
2021/10/10 03:25:25;;;;;;;39.20;23.33;;;3.60;99.90;;;;;;4915142;29;20546;-76
2021/10/10 03:27:51;;;;;;;36.63;22.83;;;3.50;99.90;;;;;;4915465;29;20032;-75
2021/10/10 03:30:17;;;;;;;40.42;23.23;;;3.40;99.90;;;;;;4915593;29;20020;-75
2021/10/10 03:32:43;;;;;;;35.88;21.40;;;3.40;99.90;;;;;;4915644;29;20091;-75
2021/10/10 03:35:09;;;;;;;35.15;22.42;;;3.50;99.90;;;;;;4915044;29;20099;-74
2021/10/10 03:37:35;;;;;;;38.40;22.83;;;3.40;99.90;;;;;;4915615;29;20036;-75
2021/10/10 03:40:11;;;;;;;38.35;22.90;;;3.50;99.90;;;;;;4916328;29;20031;-74
2021/10/10 03:42:37;;;;;;;34.88;21.17;;;3.50;99.90;;;;;;4916938;29;20035;-74
2021/10/10 03:45:05;;;;;;;40.08;24.42;;;3.60;99.90;;;;;;4916622;29;20032;-75
2021/10/10 03:47:30;;;;;;;38.80;22.77;;;3.60;99.90;;;;;;4914437;29;20035;-75
2021/10/10 03:49:56;;;;;;;41.55;24.42;;;3.60;99.90;;;;;;4915623;29;20032;-73
2021/10/10 03:52:22;;;;;;;57.60;26.42;;;3.70;99.90;;;;;;4915395;29;20037;-75
2021/10/10 03:57:31;;;;;;;54.63;28.15;;;3.70;99.90;;;;;;4915606;29;20099;-75
2021/10/10 04:00:04;;;;;;;51.78;27.83;;;3.80;99.90;;;;;;4913687;29;20028;-75
2021/10/10 04:02:30;;;;;;;51.47;28.55;;;3.80;99.90;;;;;;4913761;29;20040;-74
2021/10/10 04:04:56;;;;;;;54.67;27.90;;;3.70;99.90;;;;;;4914578;29;20105;-75
2021/10/10 04:07:23;;;;;;;50.25;27.88;;;3.80;99.90;;;;;;4916682;29;20075;-75
2021/10/10 04:09:49;;;;;;;51.15;27.90;;;3.90;99.90;;;;;;4917053;29;20478;-75
2021/10/10 04:12:14;;;;;;;40.15;25.13;;;3.90;99.90;;;;;;4917870;29;20024;-74
2021/10/10 04:14:40;;;;;;;49.65;26.30;;;3.80;99.90;;;;;;4918328;29;20478;-73
2021/10/10 04:17:06;;;;;;;47.53;26.48;;;3.90;99.90;;;;;;4918948;29;20032;-76
2021/10/10 04:19:32;;;;;;;48.38;25.75;;;4.00;99.90;;;;;;4919094;29;20474;-77
2021/10/10 04:21:58;;;;;;;39.30;23.77;;;3.90;99.90;;;;;;4919219;29;20091;-76
2021/10/10 04:24:24;;;;;;;37.70;22.63;;;3.80;99.90;;;;;;4918420;29;20119;-76
2021/10/10 04:26:50;;;;;;;37.58;22.35;;;3.80;99.90;;;;;;4918392;29;20111;-76
2021/10/10 04:29:16;;;;;;;39.38;23.65;;;3.80;99.90;;;;;;4918853;29;20028;-75
2021/10/10 04:31:41;;;;;;;42.30;22.25;;;3.90;99.90;;;;;;4918634;29;20020;-73
2021/10/10 04:34:07;;;;;;;44.20;23.73;;;3.90;99.90;;;;;;4918853;29;20052;-73
2021/10/10 04:36:33;;;;;;;52.88;24.83;;;3.90;99.90;;;;;;4932801;29;20115;-71
2021/10/10 04:38:58;;;;;;;40.55;23.77;;;3.80;99.90;;;;;;4918757;29;20025;-74
2021/10/10 04:41:24;;;;;;;42.08;24.77;;;3.80;99.90;;;;;;4918579;29;20543;-74
2021/10/10 04:43:49;;;;;;;54.67;25.10;;;3.80;99.90;;;;;;4918619;29;20475;-75
2021/10/10 04:46:15;;;;;;;37.90;22.67;;;3.90;99.90;;;;;;4917732;29;20511;-74
2021/10/10 04:48:41;;;;;;;42.83;21.13;;;3.80;99.90;;;;;;4918477;29;20028;-75
2021/10/10 04:51:06;;;;;;;40.00;19.65;;;3.60;99.90;;;;;;4917129;29;20056;-75
2021/10/10 04:53:32;;;;;;;30.77;19.55;;;3.40;99.90;;;;;;4918504;29;20111;-75
2021/10/10 04:55:58;;;;;;;35.65;20.88;;;3.30;99.90;;;;;;4917714;29;20042;-74
2021/10/10 04:58:23;;;;;;;35.53;21.23;;;3.40;99.90;;;;;;4918514;29;20126;-75
2021/10/10 05:00:49;;;;;;;35.42;21.15;;;3.60;99.90;;;;;;4918831;29;20479;-75
2021/10/10 05:03:15;;;;;;;41.92;23.10;;;3.70;99.90;;;;;;4919014;29;20044;-74
2021/10/10 05:05:43;;;;;;;38.03;23.05;;;3.80;99.90;;;;;;4917048;29;20024;-74
2021/10/10 05:08:09;;;;;;;35.95;22.48;;;3.90;99.90;;;;;;4917846;29;20035;-75
2021/10/10 05:10:35;;;;;;;34.65;21.60;;;3.90;99.90;;;;;;4918888;29;20112;-75
2021/10/10 05:13:01;;;;;;;37.83;22.33;;;3.90;99.90;;;;;;4918711;29;20024;-75
2021/10/10 05:15:27;;;;;;;47.40;20.90;;;3.80;99.90;;;;;;4917493;29;20024;-75
2021/10/10 05:17:52;;;;;;;35.65;20.75;;;3.70;99.90;;;;;;4917978;29;20368;-74
2021/10/10 05:20:18;;;;;;;31.90;19.30;;;3.70;99.90;;;;;;4918037;29;20032;-76
2021/10/10 05:22:44;;;;;;;56.47;18.67;;;3.60;99.90;;;;;;4917011;29;20071;-76
2021/10/10 05:25:10;;;;;;;57.72;18.92;;;3.50;99.90;;;;;;4917433;29;20036;-75
2021/10/10 05:27:35;;;;;;;65.18;19.48;;;3.40;99.90;;;;;;4917563;29;20825;-75
2021/10/10 05:30:02;;;;;;;42.80;21.67;;;3.20;99.90;;;;;;4917817;29;20028;-75
2021/10/10 05:32:27;;;;;;;36.20;18.10;;;3.10;99.90;;;;;;4917904;29;20028;-75
2021/10/10 05:34:53;;;;;;;25.85;17.80;;;3.10;99.90;;;;;;4917251;29;20031;-74
2021/10/10 05:37:19;;;;;;;27.90;17.48;;;3.10;99.90;;;;;;4934751;29;20027;-73
2021/10/10 05:39:44;;;;;;;25.95;17.10;;;3.20;99.90;;;;;;4941149;29;20032;-74
2021/10/10 05:42:10;;;;;;;24.13;16.55;;;3.10;99.90;;;;;;4916156;29;20028;-76
2021/10/10 05:44:36;;;;;;;30.67;17.52;;;3.20;99.90;;;;;;4917025;29;20027;-75
2021/10/10 05:47:02;;;;;;;26.45;16.55;;;3.20;99.90;;;;;;4917550;29;20020;-76
2021/10/10 05:49:27;;;;;;;26.90;17.30;;;3.10;99.90;;;;;;4917486;29;20043;-77
2021/10/10 05:51:53;;;;;;;28.30;17.17;;;3.20;99.90;;;;;;4917348;29;20020;-74
2021/10/10 05:54:21;;;;;;;24.80;17.20;;;3.30;99.90;;;;;;4916928;29;20051;-75
2021/10/10 05:56:46;;;;;;;24.60;16.42;;;3.40;99.90;;;;;;4917170;29;20024;-77
2021/10/10 05:59:15;;;;;;;24.23;17.27;;;3.40;99.90;;;;;;4917024;29;20087;-76
2021/10/10 06:01:40;;;;;;;29.17;17.23;;;3.40;99.90;;;;;;4917453;29;20446;-74
2021/10/10 06:04:07;;;;;;;26.30;17.35;;;3.40;99.90;;;;;;4917468;29;20111;-76
2021/10/10 06:06:32;;;;;;;36.22;17.65;;;3.40;99.90;;;;;;4916580;29;20031;-76
2021/10/10 06:08:58;;;;;;;30.00;18.30;;;3.30;99.90;;;;;;4917192;29;20395;-75
2021/10/10 06:11:24;;;;;;;35.75;19.08;;;3.30;99.90;;;;;;4917000;29;20024;-73
2021/10/10 06:13:50;;;;;;;27.65;17.92;;;3.40;99.90;;;;;;4916797;29;20115;-76
2021/10/10 06:16:16;;;;;;;29.33;19.48;;;3.30;99.90;;;;;;4916307;29;20491;-75
2021/10/10 06:18:42;;;;;;;31.30;20.20;;;3.40;99.90;;;;;;4916788;29;20144;-76
2021/10/10 06:21:08;;;;;;;34.63;18.92;;;3.50;99.90;;;;;;4916632;29;20104;-75
2021/10/10 06:23:33;;;;;;;45.08;20.80;;;3.80;99.90;;;;;;4917036;29;20043;-74
2021/10/10 06:25:59;;;;;;;171.23;27.05;;;4.00;99.90;;;;;;4915978;29;20371;-74
2021/10/10 06:28:25;;;;;;;45.85;24.65;;;4.30;99.90;;;;;;4915036;29;20058;-73
2021/10/10 06:30:52;;;;;;;34.72;21.48;;;4.50;99.90;;;;;;4916532;29;20039;-75
2021/10/10 06:33:17;;;;;;;30.15;20.45;;;4.30;99.90;;;;;;4916273;29;20024;-75
2021/10/10 06:35:43;;;;;;;32.80;18.17;;;4.10;99.90;;;;;;4915900;29;20038;-74
2021/10/10 06:38:09;;;;;;;42.22;20.73;;;4.10;99.90;;;;;;4916579;29;20038;-75
2021/10/10 06:40:35;;;;;;;35.15;21.67;;;4.20;99.90;;;;;;4913859;29;20032;-79
2021/10/10 06:43:01;;;;;;;42.67;21.75;;;4.50;99.90;;;;;;4893069;29;20033;-80
2021/10/10 06:45:27;;;;;;;37.65;21.25;;;4.30;99.90;;;;;;4897532;29;20029;-79
2021/10/10 06:47:52;;;;;;;38.47;21.58;;;4.00;99.90;;;;;;4898574;29;20029;-80
2021/10/10 06:50:18;;;;;;;61.08;22.75;;;4.20;99.90;;;;;;4899375;29;20071;-82
2021/10/10 06:52:43;;;;;;;30.38;19.55;;;4.20;99.90;;;;;;4899240;29;20061;-82
2021/10/10 06:55:09;;;;;;;87.85;21.67;;;4.00;99.90;;;;;;4897862;29;20562;-82
2021/10/10 06:57:35;;;;;;;155.30;20.85;;;4.20;99.90;;;;;;4898382;29;20111;-82
2021/10/10 07:00:01;;;;;;;44.95;17.80;;;4.20;99.90;;;;;;4897243;29;20064;-81
2021/10/10 07:02:29;;;;;;;154.15;21.35;;;4.00;99.90;;;;;;4897020;29;20032;-80
2021/10/10 07:04:57;;;;;;;150.70;20.77;;;3.90;99.90;;;;;;4897688;29;20024;-82
2021/10/10 07:07:23;;;;;;;30.83;17.73;;;4.20;99.90;;;;;;4898396;29;20024;-80
2021/10/10 07:09:49;;;;;;;22.60;16.50;;;4.10;99.90;;;;;;4898910;29;20507;-79
2021/10/10 07:12:14;;;;;;;99.28;18.73;;;4.00;99.90;;;;;;4920621;29;20024;-78
2021/10/10 07:14:40;;;;;;;25.33;13.50;;;4.10;99.90;;;;;;4916125;29;20032;-79
2021/10/10 07:17:06;;;;;;;25.23;14.77;;;3.90;99.90;;;;;;4901875;29;20028;-78
2021/10/10 07:19:53;;;;;;;26.00;14.15;;;4.00;99.90;;;;;;4899493;29;20539;-78
2021/10/10 07:25:10;;;;;;;26.13;13.95;;;4.20;99.90;;;;;;4896043;29;20396;-78
2021/10/10 07:27:38;;;;;;;30.92;12.80;;;3.90;99.90;;;;;;4896643;29;20029;-79
2021/10/10 07:30:05;;;;;;;25.52;13.93;;;3.80;99.90;;;;;;4881100;29;20416;-78
2021/10/10 07:32:33;;;;;;;20.48;13.20;;;3.70;99.90;;;;;;4878786;29;20025;-77
2021/10/10 07:34:59;;;;;;;19.00;13.73;;;3.60;99.90;;;;;;4877273;29;20032;-77
2021/10/10 07:37:24;;;;;;;23.60;13.38;;;3.60;99.90;;;;;;4877969;29;20105;-78
2021/10/10 07:39:50;;;;;;;31.52;12.55;;;3.80;99.90;;;;;;4882702;29;20029;-78
2021/10/10 07:42:16;;;;;;;22.80;12.57;;;3.90;99.90;;;;;;4909890;29;20044;-78
2021/10/10 07:44:45;;;;;;;21.17;12.82;;;4.10;99.90;;;;;;4913654;29;20039;-78
2021/10/10 07:49:44;;;;;;;18.35;12.82;;;5.00;99.90;;;;;;4902390;29;20032;-76
2021/10/10 07:52:10;;;;;;;30.35;15.45;;;4.80;99.90;;;;;;4929158;29;20032;-76
2021/10/10 07:54:36;;;;;;;18.88;13.77;;;5.30;99.90;;;;;;4915533;29;20034;-77
2021/10/10 07:57:02;;;;;;;14.40;11.90;;;5.50;99.90;;;;;;4914787;29;20033;-77
2021/10/10 07:59:28;;;;;;;15.32;11.20;;;5.90;99.90;;;;;;4918979;29;20092;-80
2021/10/10 08:01:54;;;;;;;13.98;10.00;;;6.00;99.90;;;;;;4910379;29;20515;-79
2021/10/10 08:04:20;;;;;;;10.57;9.48;;;6.00;99.90;;;;;;4900619;29;20029;-78
2021/10/10 08:06:49;;;;;;;13.00;10.25;;;6.10;99.90;;;;;;4896273;29;20025;-78
2021/10/10 08:09:15;;;;;;;12.70;10.77;;;6.70;99.90;;;;;;4897999;29;20035;-79
2021/10/10 08:11:42;;;;;;;13.63;11.13;;;6.90;99.90;;;;;;4905440;29;20032;-79
2021/10/10 08:14:08;;;;;;;12.88;11.00;;;7.20;99.90;;;;;;4915439;29;20051;-78
2021/10/10 08:16:33;;;;;;;13.68;10.93;;;7.60;99.90;;;;;;4915172;29;20058;-78
2021/10/10 08:18:59;;;;;;;15.70;10.55;;;8.60;99.90;;;;;;4916325;29;20043;-78
2021/10/10 08:21:26;;;;;;;14.18;10.73;;;9.70;99.90;;;;;;4915446;29;20076;-77
2021/10/10 08:23:52;;;;;;;12.27;10.13;;;10.30;99.90;;;;;;4917017;29;20099;-78
2021/10/10 08:26:17;;;;;;;14.50;11.27;;;10.90;99.90;;;;;;4920414;29;20518;-79
2021/10/10 08:28:43;;;;;;;9.57;8.65;;;11.20;99.90;;;;;;4916002;29;20024;-78
2021/10/10 08:31:09;;;;;;;9.70;8.70;;;11.00;99.90;;;;;;4917070;29;20260;-79
2021/10/10 08:33:34;;;;;;;9.82;8.52;;;10.30;99.90;;;;;;4915811;29;20039;-79
2021/10/10 08:36:00;;;;;;;11.05;9.43;;;9.60;99.90;;;;;;4915164;29;20091;-79
2021/10/10 08:38:26;;;;;;;11.75;9.40;;;10.30;99.90;;;;;;4897917;29;20503;-77
2021/10/10 08:40:53;;;;;;;11.95;10.52;;;10.60;99.90;;;;;;4900301;29;20029;-78
2021/10/10 08:43:21;;;;;;;10.35;9.30;;;11.10;99.90;;;;;;4915265;29;20048;-77
2021/10/10 08:45:48;;;;;;;10.32;9.15;;;11.20;99.90;;;;;;4914168;29;20112;-79
2021/10/10 08:48:17;;;;;;;11.73;9.98;;;12.20;99.90;;;;;;4916248;29;20035;-78
2021/10/10 08:50:43;;;;;;;12.20;9.80;;;12.50;99.90;;;;;;4916782;29;20036;-77
2021/10/10 08:53:11;;;;;;;11.32;9.95;;;12.70;99.90;;;;;;4916463;29;20473;-76
2021/10/10 08:55:37;;;;;;;10.48;9.32;;;12.80;99.90;;;;;;4915870;29;20024;-79
2021/10/10 08:58:06;;;;;;;11.75;9.90;;;13.00;99.90;;;;;;4919584;29;20055;-78
2021/10/10 09:00:34;;;;;;;11.43;9.48;;;13.50;99.90;;;;;;4918689;29;20024;-77
2021/10/10 09:03:01;;;;;;;14.77;10.10;;;14.10;99.90;;;;;;4918238;29;20063;-77
2021/10/10 09:05:27;;;;;;;11.27;10.05;;;15.90;99.90;;;;;;4917379;29;20040;-77
2021/10/10 09:07:56;;;;;;;10.43;9.30;;;16.80;99.90;;;;;;4918346;29;20035;-76
2021/10/10 09:10:29;;;;;;;9.98;8.98;;;17.20;99.90;;;;;;4918547;29;20436;-77
2021/10/10 09:13:16;;;;;;;12.20;8.88;;;16.90;99.90;;;;;;4898028;29;20484;-78
2021/10/10 09:15:54;;;;;;;10.43;9.07;;;17.10;99.90;;;;;;4893161;29;20060;-78
2021/10/10 09:18:30;;;;;;;11.40;9.45;;;16.90;99.90;;;;;;4899210;29;20479;-77
2021/10/10 09:20:55;;;;;;;9.93;8.93;;;16.00;99.90;;;;;;4899069;29;20120;-76
2021/10/10 09:23:21;;;;;;;11.00;9.90;;;15.80;99.90;;;;;;4898947;29;20112;-77
2021/10/10 09:25:54;;;;;;;11.68;9.32;;;15.50;99.90;;;;;;4880464;29;20116;-76
2021/10/10 09:28:22;;;;;;;11.35;8.80;;;16.40;99.90;;;;;;4880513;29;20480;-76
2021/10/10 09:30:59;;;;;;;10.38;8.90;;;16.60;99.90;;;;;;4880712;29;20519;-77
2021/10/10 09:33:46;;;;;;;13.13;9.20;;;16.70;99.90;;;;;;4880775;29;20073;-77
2021/10/10 09:36:21;;;;;;;13.20;10.00;;;17.00;99.90;;;;;;4885134;29;20072;-76
2021/10/10 09:38:56;;;;;;;15.25;9.52;;;18.20;99.10;;;;;;4899107;29;20029;-78
2021/10/10 09:41:28;;;;;;;15.10;10.00;;;17.20;98.10;;;;;;4904405;29;20030;-76
2021/10/10 09:46:44;;;;;;;14.65;9.70;;;17.00;99.40;;;;;;4917534;29;20036;-77
2021/10/10 09:49:26;;;;;;;10.35;9.32;;;17.40;99.50;;;;;;4918011;29;20551;-76
2021/10/10 09:51:54;;;;;;;;;;;18.20;98.20;;;;;;4918292;29;20479;-76
2021/10/10 09:54:21;;;;;;;11.82;8.82;;;17.90;97.00;;;;;;4917154;29;19907;-76
2021/10/10 09:57:23;;;;;;;10.70;8.77;;;18.30;98.20;;;;;;4917022;29;20387;-77
2021/10/10 09:59:49;;;;;;;10.95;9.02;;;18.30;96.20;;;;;;4914942;29;20063;-77
2021/10/10 10:02:15;;;;;;;10.65;8.50;;;19.20;94.80;;;;;;4916691;29;20447;-76
2021/10/10 10:04:45;;;;;;;15.13;9.10;;;19.70;95.60;;;;;;4903384;29;20036;-76
2021/10/10 10:07:15;;;;;;;10.80;8.43;;;20.10;93.80;;;;;;4897297;29;20053;-76
2021/10/10 10:09:41;;;;;;;11.82;8.68;;;20.20;92.90;;;;;;4898508;29;20088;-76
2021/10/10 10:12:08;;;;;;;19.90;9.57;;;19.50;92.00;;;;;;4909845;29;20028;-77
2021/10/10 10:14:35;;;;;;;19.85;8.98;;;18.70;94.00;;;;;;4897897;29;20038;-76
2021/10/10 10:17:04;;;;;;;12.85;9.60;;;18.10;92.00;;;;;;4898264;29;20402;-75
2021/10/10 10:19:31;;;;;;;13.07;7.97;;;17.70;93.00;;;;;;4898404;29;20028;-78
2021/10/10 10:21:58;;;;;;;14.38;9.43;;;18.00;93.30;;;;;;4898162;29;20088;-76
2021/10/10 10:24:27;;;;;;;16.52;8.98;;;18.00;93.80;;;;;;4897554;29;20028;-77
2021/10/10 10:26:53;;;;;;;11.65;8.18;;;19.00;93.40;;;;;;4897634;29;20033;-76
2021/10/10 10:29:25;;;;;;;13.18;8.50;;;20.30;91.20;;;;;;4897244;29;20396;-77
2021/10/10 10:31:54;;;;;;;13.40;8.65;;;20.10;91.20;;;;;;4898238;29;20016;-79
2021/10/10 10:34:22;;;;;;;10.95;8.45;;;20.00;90.20;;;;;;4898208;29;20483;-77
2021/10/10 10:37:02;;;;;;;11.77;8.20;;;20.00;89.20;;;;;;4897731;29;20025;-79
2021/10/10 10:39:44;;;;;;;11.63;8.25;;;19.50;90.50;;;;;;4899869;29;20132;-77
2021/10/10 10:42:13;;;;;;;11.82;7.80;;;19.70;90.70;;;;;;4900119;29;20108;-77
2021/10/10 10:44:50;;;;;;;11.90;8.98;;;19.40;90.30;;;;;;4897867;29;20036;-75
2021/10/10 10:47:20;;;;;;;11.23;8.23;;;19.10;90.30;;;;;;4904241;29;20036;-76
2021/10/10 10:52:24;;;;;;;12.73;9.15;;;19.50;91.50;;;;;;4903541;29;20039;-76
2021/10/10 10:55:05;;;;;;;9.95;8.18;;;19.70;90.60;;;;;;4909211;29;20039;-75
2021/10/10 10:57:36;;;;;;;13.52;8.30;;;20.40;89.10;;;;;;4914567;29;20036;-77
2021/10/10 11:00:04;;;;;;;16.48;8.07;;;20.80;89.20;;;;;;4912609;29;20026;-77
2021/10/10 11:02:52;;;;;;;13.80;9.15;;;20.70;86.50;;;;;;4905487;29;20036;-77
2021/10/10 11:05:33;;;;;;;15.23;8.75;;;21.60;87.60;;;;;;4906217;29;20107;-75
2021/10/10 11:08:22;;;;;;;15.35;8.00;;;22.30;84.80;;;;;;4904286;29;20088;-77
2021/10/10 11:11:15;;;;;;;9.52;8.52;;;22.00;84.70;;;;;;4903576;29;20040;-76
2021/10/10 11:13:55;;;;;;;10.60;8.40;;;20.80;84.50;;;;;;4916998;29;20072;-77
2021/10/10 11:16:25;;;;;;;13.73;8.27;;;19.60;91.20;;;;;;4915524;29;20028;-75
2021/10/10 11:18:51;;;;;;;13.68;9.05;;;21.10;89.70;;;;;;4920424;29;20087;-77
2021/10/10 11:21:23;;;;;;;14.25;9.10;;;21.50;86.50;;;;;;4926943;29;20027;-76
2021/10/10 11:23:55;;;;;;;11.20;8.57;;;21.80;86.00;;;;;;4926681;29;20039;-74
2021/10/10 11:26:22;;;;;;;11.57;8.60;;;22.40;82.40;;;;;;4923198;29;20032;-76
2021/10/10 11:28:53;;;;;;;10.40;8.10;;;22.90;82.30;;;;;;4917220;29;20020;-81
2021/10/10 11:31:20;;;;;;;13.70;8.57;;;23.90;82.50;;;;;;4903429;29;20024;-79
2021/10/10 11:34:12;;;;;;;8.80;7.55;;;23.60;77.20;;;;;;4902279;29;20470;-80
2021/10/10 11:36:46;;;;;;;16.35;8.43;;;23.60;79.40;;;;;;4900480;29;20020;-80
2021/10/10 11:39:22;;;;;;;12.55;8.02;;;24.20;75.50;;;;;;4913537;29;20578;-78
2021/10/10 11:41:51;;;;;;;10.32;8.35;;;23.90;75.80;;;;;;4901036;29;20356;-79
2021/10/10 11:44:18;;;;;;;12.27;8.95;;;24.00;76.40;;;;;;4897173;29;20017;-79
2021/10/10 11:46:52;;;;;;;13.50;8.48;;;24.00;73.60;;;;;;4897392;29;20032;-80
2021/10/10 11:49:28;;;;;;;10.68;8.07;;;23.60;73.80;;;;;;4897131;29;20040;-79
2021/10/10 11:51:54;;;;;;;12.48;8.38;;;23.40;74.40;;;;;;4895567;29;20024;-75
2021/10/10 11:54:32;;;;;;;13.30;8.13;;;23.50;75.30;;;;;;4896373;29;20036;-74
2021/10/10 11:56:59;;;;;;;11.88;7.90;;;23.10;74.60;;;;;;4896870;29;20368;-76
2021/10/10 11:59:25;;;;;;;15.40;8.57;;;22.80;74.70;;;;;;4896544;29;20056;-75
2021/10/10 12:01:55;;;;;;;11.00;8.50;;;23.30;74.30;;;;;;4896268;29;20047;-76
2021/10/10 12:04:22;;;;;;;11.18;8.23;;;24.50;72.30;;;;;;4895406;29;20032;-77
2021/10/10 12:06:51;;;;;;;15.23;8.50;;;25.60;71.10;;;;;;4897675;29;20060;-77
2021/10/10 12:09:17;;;;;;;14.77;8.48;;;24.50;70.20;;;;;;4896913;29;20113;-77
2021/10/10 12:12:14;;;;;;;12.07;8.50;;;24.60;69.60;;;;;;4905735;29;20024;-77
2021/10/10 12:14:46;;;;;;;10.55;8.32;;;25.40;68.40;;;;;;4915645;29;20036;-77
2021/10/10 12:17:35;;;;;;;9.90;8.32;;;25.90;65.10;;;;;;4899126;29;20539;-79
2021/10/10 12:20:23;;;;;;;12.32;7.50;;;27.00;65.20;;;;;;4904748;29;20039;-79
2021/10/10 12:23:05;;;;;;;11.95;7.60;;;26.70;61.80;;;;;;4904894;29;20036;-78
2021/10/10 12:25:40;;;;;;;13.55;8.55;;;26.30;65.40;;;;;;4887532;29;20514;-78
2021/10/10 12:28:05;;;;;;;14.57;11.63;;;26.90;63.70;;;;;;4890195;29;20040;-77
2021/10/10 12:30:37;;;;;;;12.57;7.65;;;26.30;68.80;;;;;;4906877;29;20443;-78
2021/10/10 12:33:27;;;;;;;12.45;7.38;;;25.00;65.10;;;;;;4927983;29;20056;-80
2021/10/10 12:36:11;;;;;;;10.20;7.72;;;23.80;66.40;;;;;;4905000;29;20470;-80
2021/10/10 12:38:40;;;;;;;12.55;8.82;;;24.80;70.10;;;;;;4900317;29;20025;-79
2021/10/10 12:41:31;;;;;;;10.25;7.40;;;24.60;63.70;;;;;;4903776;29;20028;-79
2021/10/10 12:44:10;;;;;;;14.90;7.70;;;24.10;68.70;;;;;;4903867;29;20115;-81
2021/10/10 12:46:56;;;;;;;10.93;8.18;;;24.40;67.90;;;;;;4902001;29;20472;-81
2021/10/10 12:49:36;;;;;;;10.38;7.57;;;23.90;67.10;;;;;;4900581;29;20020;-81
2021/10/10 12:52:03;;;;;;;11.82;8.80;;;22.50;70.30;;;;;;4902211;29;20084;-81
2021/10/10 12:54:30;;;;;;;10.55;7.97;;;22.80;73.80;;;;;;4901440;29;20025;-81
2021/10/10 12:57:05;;;;;;;12.43;7.85;;;23.80;68.30;;;;;;4903236;29;20024;-81